sensor_id;sensor_type;location;lat;lon;timestamp;P1;durP1;ratioP1;P2;durP2;ratioP2
55254;SDS011;41118;44.634;11.182;2022-10-13T00:00:52;8.32;;;3.15;;
55254;SDS011;41118;44.634;11.182;2022-10-13T00:03:18;10.65;;;3.15;;
55254;SDS011;41118;44.634;11.182;2022-10-13T00:05:46;8.82;;;2.15;;
55254;SDS011;41118;44.634;11.182;2022-10-13T00:08:13;10.00;;;2.85;;
55254;SDS011;41118;44.634;11.182;2022-10-13T00:10:40;9.00;;;1.60;;
55254;SDS011;41118;44.634;11.182;2022-10-13T00:13:06;10.00;;;2.13;;
55254;SDS011;41118;44.634;11.182;2022-10-13T00:15:36;7.03;;;2.75;;
55254;SDS011;41118;44.634;11.182;2022-10-13T00:18:03;7.10;;;2.65;;
55254;SDS011;41118;44.634;11.182;2022-10-13T00:20:29;5.82;;;1.52;;
55254;SDS011;41118;44.634;11.182;2022-10-13T00:22:55;9.80;;;2.00;;
55254;SDS011;41118;44.634;11.182;2022-10-13T00:25:21;6.93;;;2.10;;
55254;SDS011;41118;44.634;11.182;2022-10-13T00:27:47;11.25;;;2.28;;
55254;SDS011;41118;44.634;11.182;2022-10-13T00:30:13;10.93;;;2.20;;
55254;SDS011;41118;44.634;11.182;2022-10-13T00:32:39;6.35;;;1.92;;
55254;SDS011;41118;44.634;11.182;2022-10-13T00:35:06;4.00;;;1.70;;
55254;SDS011;41118;44.634;11.182;2022-10-13T00:37:32;7.28;;;2.65;;
55254;SDS011;41118;44.634;11.182;2022-10-13T00:39:58;9.85;;;2.33;;
55254;SDS011;41118;44.634;11.182;2022-10-13T00:42:24;13.98;;;3.40;;
55254;SDS011;41118;44.634;11.182;2022-10-13T00:44:58;8.68;;;2.63;;
55254;SDS011;41118;44.634;11.182;2022-10-13T00:49:51;8.60;;;3.40;;
55254;SDS011;41118;44.634;11.182;2022-10-13T00:52:18;12.55;;;2.63;;
55254;SDS011;41118;44.634;11.182;2022-10-13T00:54:45;10.07;;;2.70;;
55254;SDS011;41118;44.634;11.182;2022-10-13T00:57:12;10.57;;;3.45;;
55254;SDS011;41118;44.634;11.182;2022-10-13T00:59:38;5.28;;;1.30;;
55254;SDS011;41118;44.634;11.182;2022-10-13T01:02:05;7.93;;;2.78;;
55254;SDS011;41118;44.634;11.182;2022-10-13T01:04:36;9.25;;;2.40;;
55254;SDS011;41118;44.634;11.182;2022-10-13T01:07:03;17.08;;;2.83;;
55254;SDS011;41118;44.634;11.182;2022-10-13T01:09:29;7.88;;;2.53;;
55254;SDS011;41118;44.634;11.182;2022-10-13T01:30:28;12.68;;;3.38;;
55254;SDS011;41118;44.634;11.182;2022-10-13T01:33:04;12.70;;;2.60;;
55254;SDS011;41118;44.634;11.182;2022-10-13T01:38:25;13.90;;;2.40;;
55254;SDS011;41118;44.634;11.182;2022-10-13T01:40:58;8.65;;;3.58;;
55254;SDS011;41118;44.634;11.182;2022-10-13T01:43:35;11.30;;;3.22;;
55254;SDS011;41118;44.634;11.182;2022-10-13T01:46:04;22.63;;;3.15;;
55254;SDS011;41118;44.634;11.182;2022-10-13T01:48:31;14.23;;;3.08;;
55254;SDS011;41118;44.634;11.182;2022-10-13T01:50:58;11.27;;;3.42;;
55254;SDS011;41118;44.634;11.182;2022-10-13T01:53:25;10.57;;;3.85;;
55254;SDS011;41118;44.634;11.182;2022-10-13T01:55:53;10.90;;;2.70;;
55254;SDS011;41118;44.634;11.182;2022-10-13T01:58:19;11.30;;;3.38;;
55254;SDS011;41118;44.634;11.182;2022-10-13T02:00:50;17.50;;;4.57;;
55254;SDS011;41118;44.634;11.182;2022-10-13T02:03:20;10.77;;;2.60;;
55254;SDS011;41118;44.634;11.182;2022-10-13T02:05:52;14.77;;;3.80;;
55254;SDS011;41118;44.634;11.182;2022-10-13T02:13:34;8.52;;;3.88;;
55254;SDS011;41118;44.634;11.182;2022-10-13T02:16:01;12.60;;;3.15;;
55254;SDS011;41118;44.634;11.182;2022-10-13T02:18:29;10.90;;;3.60;;
55254;SDS011;41118;44.634;11.182;2022-10-13T02:20:56;11.23;;;3.55;;
55254;SDS011;41118;44.634;11.182;2022-10-13T02:23:23;8.15;;;4.13;;
55254;SDS011;41118;44.634;11.182;2022-10-13T02:25:50;9.77;;;2.85;;
55254;SDS011;41118;44.634;11.182;2022-10-13T02:28:16;13.77;;;4.55;;
55254;SDS011;41118;44.634;11.182;2022-10-13T02:30:43;8.40;;;3.05;;
55254;SDS011;41118;44.634;11.182;2022-10-13T02:33:09;14.38;;;3.45;;
55254;SDS011;41118;44.634;11.182;2022-10-13T02:35:36;9.07;;;3.17;;
55254;SDS011;41118;44.634;11.182;2022-10-13T02:38:02;7.65;;;2.95;;
55254;SDS011;41118;44.634;11.182;2022-10-13T02:40:28;10.82;;;5.10;;
55254;SDS011;41118;44.634;11.182;2022-10-13T02:42:54;9.23;;;2.65;;
55254;SDS011;41118;44.634;11.182;2022-10-13T02:45:20;13.13;;;5.25;;
55254;SDS011;41118;44.634;11.182;2022-10-13T02:47:46;10.57;;;3.72;;
55254;SDS011;41118;44.634;11.182;2022-10-13T02:50:12;13.27;;;4.18;;
55254;SDS011;41118;44.634;11.182;2022-10-13T02:52:39;10.88;;;3.70;;
55254;SDS011;41118;44.634;11.182;2022-10-13T02:55:05;14.25;;;3.92;;
55254;SDS011;41118;44.634;11.182;2022-10-13T02:57:31;13.00;;;4.53;;
55254;SDS011;41118;44.634;11.182;2022-10-13T02:59:58;11.80;;;3.38;;
55254;SDS011;41118;44.634;11.182;2022-10-13T03:02:27;8.43;;;3.92;;
55254;SDS011;41118;44.634;11.182;2022-10-13T03:04:53;7.18;;;3.72;;
55254;SDS011;41118;44.634;11.182;2022-10-13T03:07:20;8.70;;;3.53;;
55254;SDS011;41118;44.634;11.182;2022-10-13T03:09:46;12.25;;;4.65;;
55254;SDS011;41118;44.634;11.182;2022-10-13T03:12:12;11.95;;;3.13;;
55254;SDS011;41118;44.634;11.182;2022-10-13T03:14:39;6.78;;;3.88;;
55254;SDS011;41118;44.634;11.182;2022-10-13T03:17:05;14.65;;;4.95;;
55254;SDS011;41118;44.634;11.182;2022-10-13T03:19:31;9.95;;;4.18;;
55254;SDS011;41118;44.634;11.182;2022-10-13T03:21:57;10.23;;;4.70;;
55254;SDS011;41118;44.634;11.182;2022-10-13T03:24:23;9.70;;;3.97;;
55254;SDS011;41118;44.634;11.182;2022-10-13T03:26:50;12.25;;;3.42;;
55254;SDS011;41118;44.634;11.182;2022-10-13T03:29:16;9.32;;;3.00;;
55254;SDS011;41118;44.634;11.182;2022-10-13T03:31:42;8.70;;;3.25;;
55254;SDS011;41118;44.634;11.182;2022-10-13T03:34:09;14.00;;;4.45;;
55254;SDS011;41118;44.634;11.182;2022-10-13T03:36:35;11.88;;;4.90;;
55254;SDS011;41118;44.634;11.182;2022-10-13T03:39:02;16.45;;;3.50;;
55254;SDS011;41118;44.634;11.182;2022-10-13T03:41:28;10.75;;;3.20;;
55254;SDS011;41118;44.634;11.182;2022-10-13T03:43:54;8.98;;;3.75;;
55254;SDS011;41118;44.634;11.182;2022-10-13T03:46:20;15.43;;;4.32;;
55254;SDS011;41118;44.634;11.182;2022-10-13T03:48:48;10.25;;;3.60;;
55254;SDS011;41118;44.634;11.182;2022-10-13T03:51:15;11.93;;;3.05;;
55254;SDS011;41118;44.634;11.182;2022-10-13T03:53:42;7.97;;;3.38;;
55254;SDS011;41118;44.634;11.182;2022-10-13T03:56:09;9.05;;;3.78;;
55254;SDS011;41118;44.634;11.182;2022-10-13T03:58:37;11.07;;;3.83;;
55254;SDS011;41118;44.634;11.182;2022-10-13T04:01:03;9.82;;;3.42;;
55254;SDS011;41118;44.634;11.182;2022-10-13T04:03:30;7.75;;;3.33;;
55254;SDS011;41118;44.634;11.182;2022-10-13T04:05:58;8.27;;;3.80;;
55254;SDS011;41118;44.634;11.182;2022-10-13T04:08:26;12.68;;;2.95;;
55254;SDS011;41118;44.634;11.182;2022-10-13T04:10:59;9.32;;;2.58;;
55254;SDS011;41118;44.634;11.182;2022-10-13T04:13:25;9.13;;;3.08;;
55254;SDS011;41118;44.634;11.182;2022-10-13T04:15:51;9.98;;;3.30;;
55254;SDS011;41118;44.634;11.182;2022-10-13T04:18:17;15.50;;;4.63;;
55254;SDS011;41118;44.634;11.182;2022-10-13T04:20:44;15.93;;;5.68;;
55254;SDS011;41118;44.634;11.182;2022-10-13T04:23:10;12.05;;;4.43;;
55254;SDS011;41118;44.634;11.182;2022-10-13T04:25:37;10.00;;;4.47;;
55254;SDS011;41118;44.634;11.182;2022-10-13T04:28:04;12.57;;;3.58;;
55254;SDS011;41118;44.634;11.182;2022-10-13T04:30:33;8.00;;;3.25;;
55254;SDS011;41118;44.634;11.182;2022-10-13T04:32:59;8.60;;;3.33;;
55254;SDS011;41118;44.634;11.182;2022-10-13T04:35:26;10.40;;;3.55;;
55254;SDS011;41118;44.634;11.182;2022-10-13T04:37:52;11.95;;;4.18;;
55254;SDS011;41118;44.634;11.182;2022-10-13T04:40:18;14.85;;;4.25;;
55254;SDS011;41118;44.634;11.182;2022-10-13T04:42:44;9.18;;;5.22;;
55254;SDS011;41118;44.634;11.182;2022-10-13T04:45:10;14.93;;;5.22;;
55254;SDS011;41118;44.634;11.182;2022-10-13T04:47:36;13.93;;;4.82;;
55254;SDS011;41118;44.634;11.182;2022-10-13T04:50:03;13.38;;;5.38;;
55254;SDS011;41118;44.634;11.182;2022-10-13T04:52:30;12.00;;;4.20;;
55254;SDS011;41118;44.634;11.182;2022-10-13T04:54:56;14.40;;;5.63;;
55254;SDS011;41118;44.634;11.182;2022-10-13T04:57:22;16.90;;;5.80;;
55254;SDS011;41118;44.634;11.182;2022-10-13T04:59:48;13.52;;;6.70;;
55254;SDS011;41118;44.634;11.182;2022-10-13T05:02:15;11.82;;;5.00;;
55254;SDS011;41118;44.634;11.182;2022-10-13T05:04:41;13.57;;;5.38;;
55254;SDS011;41118;44.634;11.182;2022-10-13T05:07:07;15.70;;;5.07;;
55254;SDS011;41118;44.634;11.182;2022-10-13T05:09:33;13.90;;;4.85;;
55254;SDS011;41118;44.634;11.182;2022-10-13T05:12:00;15.05;;;5.45;;
55254;SDS011;41118;44.634;11.182;2022-10-13T05:14:26;18.55;;;5.32;;
55254;SDS011;41118;44.634;11.182;2022-10-13T05:16:52;11.48;;;4.32;;
55254;SDS011;41118;44.634;11.182;2022-10-13T05:19:19;11.68;;;6.28;;
55254;SDS011;41118;44.634;11.182;2022-10-13T05:21:45;22.98;;;9.43;;
55254;SDS011;41118;44.634;11.182;2022-10-13T05:24:11;14.82;;;8.05;;
55254;SDS011;41118;44.634;11.182;2022-10-13T05:26:39;17.15;;;5.97;;
55254;SDS011;41118;44.634;11.182;2022-10-13T05:29:05;14.57;;;6.60;;
55254;SDS011;41118;44.634;11.182;2022-10-13T05:31:32;13.93;;;6.57;;
55254;SDS011;41118;44.634;11.182;2022-10-13T05:33:59;19.10;;;8.02;;
55254;SDS011;41118;44.634;11.182;2022-10-13T05:36:32;20.35;;;8.48;;
55254;SDS011;41118;44.634;11.182;2022-10-13T05:39:02;14.27;;;6.82;;
55254;SDS011;41118;44.634;11.182;2022-10-13T05:41:29;17.70;;;8.73;;
55254;SDS011;41118;44.634;11.182;2022-10-13T05:43:56;21.52;;;9.30;;
55254;SDS011;41118;44.634;11.182;2022-10-13T05:46:23;26.15;;;10.70;;
55254;SDS011;41118;44.634;11.182;2022-10-13T05:48:49;29.00;;;9.98;;
55254;SDS011;41118;44.634;11.182;2022-10-13T05:51:35;20.35;;;9.57;;
55254;SDS011;41118;44.634;11.182;2022-10-13T05:54:06;22.73;;;11.32;;
55254;SDS011;41118;44.634;11.182;2022-10-13T05:56:38;25.13;;;8.45;;
55254;SDS011;41118;44.634;11.182;2022-10-13T05:59:05;17.20;;;9.02;;
55254;SDS011;41118;44.634;11.182;2022-10-13T06:01:34;24.50;;;8.77;;
55254;SDS011;41118;44.634;11.182;2022-10-13T06:04:02;24.25;;;9.05;;
55254;SDS011;41118;44.634;11.182;2022-10-13T06:06:29;27.58;;;10.02;;
55254;SDS011;41118;44.634;11.182;2022-10-13T06:08:55;19.77;;;9.70;;
55254;SDS011;41118;44.634;11.182;2022-10-13T06:11:22;24.75;;;10.05;;
55254;SDS011;41118;44.634;11.182;2022-10-13T06:13:48;22.52;;;11.50;;
55254;SDS011;41118;44.634;11.182;2022-10-13T06:16:15;29.85;;;10.20;;
55254;SDS011;41118;44.634;11.182;2022-10-13T06:18:41;22.05;;;9.70;;
55254;SDS011;41118;44.634;11.182;2022-10-13T06:21:07;22.38;;;9.80;;
55254;SDS011;41118;44.634;11.182;2022-10-13T06:23:33;20.40;;;8.35;;
55254;SDS011;41118;44.634;11.182;2022-10-13T06:25:59;20.45;;;10.40;;
55254;SDS011;41118;44.634;11.182;2022-10-13T06:28:25;20.17;;;10.30;;
55254;SDS011;41118;44.634;11.182;2022-10-13T06:30:52;23.75;;;9.35;;
55254;SDS011;41118;44.634;11.182;2022-10-13T06:33:20;22.05;;;9.35;;
55254;SDS011;41118;44.634;11.182;2022-10-13T06:35:46;19.20;;;8.02;;
55254;SDS011;41118;44.634;11.182;2022-10-13T06:38:12;32.00;;;9.90;;
55254;SDS011;41118;44.634;11.182;2022-10-13T06:40:39;30.38;;;8.77;;
55254;SDS011;41118;44.634;11.182;2022-10-13T06:43:05;18.27;;;7.90;;
55254;SDS011;41118;44.634;11.182;2022-10-13T06:45:31;19.20;;;6.13;;
55254;SDS011;41118;44.634;11.182;2022-10-13T06:47:57;22.70;;;8.38;;
55254;SDS011;41118;44.634;11.182;2022-10-13T06:50:24;23.90;;;8.77;;
55254;SDS011;41118;44.634;11.182;2022-10-13T06:52:50;23.50;;;9.10;;
55254;SDS011;41118;44.634;11.182;2022-10-13T06:55:16;19.75;;;8.30;;
55254;SDS011;41118;44.634;11.182;2022-10-13T06:57:43;22.10;;;9.70;;
55254;SDS011;41118;44.634;11.182;2022-10-13T07:00:09;20.13;;;9.38;;
55254;SDS011;41118;44.634;11.182;2022-10-13T07:02:35;20.38;;;9.15;;
55254;SDS011;41118;44.634;11.182;2022-10-13T07:05:01;27.02;;;8.20;;
55254;SDS011;41118;44.634;11.182;2022-10-13T07:07:27;29.17;;;9.05;;
55254;SDS011;41118;44.634;11.182;2022-10-13T07:09:54;32.53;;;11.45;;
55254;SDS011;41118;44.634;11.182;2022-10-13T07:12:20;26.13;;;10.80;;
55254;SDS011;41118;44.634;11.182;2022-10-13T07:14:46;23.85;;;10.95;;
55254;SDS011;41118;44.634;11.182;2022-10-13T07:17:13;24.40;;;8.52;;
55254;SDS011;41118;44.634;11.182;2022-10-13T07:19:39;26.15;;;10.80;;
55254;SDS011;41118;44.634;11.182;2022-10-13T07:22:05;29.35;;;9.77;;
55254;SDS011;41118;44.634;11.182;2022-10-13T07:24:31;23.25;;;9.90;;
55254;SDS011;41118;44.634;11.182;2022-10-13T07:26:58;18.05;;;8.23;;
55254;SDS011;41118;44.634;11.182;2022-10-13T07:29:24;25.17;;;8.75;;
55254;SDS011;41118;44.634;11.182;2022-10-13T07:31:50;33.95;;;10.88;;
55254;SDS011;41118;44.634;11.182;2022-10-13T07:34:16;24.10;;;10.13;;
55254;SDS011;41118;44.634;11.182;2022-10-13T07:36:42;23.63;;;10.35;;
55254;SDS011;41118;44.634;11.182;2022-10-13T07:39:08;25.13;;;11.02;;
55254;SDS011;41118;44.634;11.182;2022-10-13T07:41:34;20.27;;;9.75;;
55254;SDS011;41118;44.634;11.182;2022-10-13T07:44:01;26.85;;;9.20;;
55254;SDS011;41118;44.634;11.182;2022-10-13T07:46:27;24.02;;;8.27;;
55254;SDS011;41118;44.634;11.182;2022-10-13T07:48:53;18.33;;;9.35;;
55254;SDS011;41118;44.634;11.182;2022-10-13T07:51:20;26.95;;;11.10;;
55254;SDS011;41118;44.634;11.182;2022-10-13T07:53:46;21.30;;;9.55;;
55254;SDS011;41118;44.634;11.182;2022-10-13T07:56:13;23.20;;;7.70;;
55254;SDS011;41118;44.634;11.182;2022-10-13T07:58:43;16.95;;;6.57;;
55254;SDS011;41118;44.634;11.182;2022-10-13T08:01:10;19.10;;;8.13;;
55254;SDS011;41118;44.634;11.182;2022-10-13T08:03:37;20.05;;;8.90;;
55254;SDS011;41118;44.634;11.182;2022-10-13T08:06:04;19.30;;;9.05;;
55254;SDS011;41118;44.634;11.182;2022-10-13T08:08:31;20.13;;;8.07;;
55254;SDS011;41118;44.634;11.182;2022-10-13T08:11:01;19.17;;;8.68;;
55254;SDS011;41118;44.634;11.182;2022-10-13T08:13:28;17.05;;;7.18;;
55254;SDS011;41118;44.634;11.182;2022-10-13T08:15:54;24.20;;;7.38;;
55254;SDS011;41118;44.634;11.182;2022-10-13T08:18:20;24.73;;;9.10;;
55254;SDS011;41118;44.634;11.182;2022-10-13T08:20:46;25.52;;;7.70;;
55254;SDS011;41118;44.634;11.182;2022-10-13T08:23:12;20.27;;;7.68;;
55254;SDS011;41118;44.634;11.182;2022-10-13T08:25:39;12.50;;;5.68;;
55254;SDS011;41118;44.634;11.182;2022-10-13T08:28:15;21.52;;;8.93;;
55254;SDS011;41118;44.634;11.182;2022-10-13T08:30:42;19.30;;;5.13;;
55254;SDS011;41118;44.634;11.182;2022-10-13T08:33:08;12.48;;;5.50;;
55254;SDS011;41118;44.634;11.182;2022-10-13T08:35:34;13.13;;;7.05;;
55254;SDS011;41118;44.634;11.182;2022-10-13T08:38:00;16.75;;;8.32;;
55254;SDS011;41118;44.634;11.182;2022-10-13T08:40:26;17.38;;;5.93;;
55254;SDS011;41118;44.634;11.182;2022-10-13T08:42:52;24.95;;;6.63;;
55254;SDS011;41118;44.634;11.182;2022-10-13T08:45:24;23.05;;;7.53;;
55254;SDS011;41118;44.634;11.182;2022-10-13T08:47:52;12.55;;;5.10;;
55254;SDS011;41118;44.634;11.182;2022-10-13T08:50:21;10.77;;;3.95;;
55254;SDS011;41118;44.634;11.182;2022-10-13T08:52:55;12.25;;;4.15;;
55254;SDS011;41118;44.634;11.182;2022-10-13T08:55:27;21.73;;;7.03;;
55254;SDS011;41118;44.634;11.182;2022-10-13T08:57:55;10.18;;;4.18;;
55254;SDS011;41118;44.634;11.182;2022-10-13T09:00:21;12.07;;;4.65;;
55254;SDS011;41118;44.634;11.182;2022-10-13T09:02:47;15.43;;;3.92;;
55254;SDS011;41118;44.634;11.182;2022-10-13T09:05:19;8.40;;;3.67;;
55254;SDS011;41118;44.634;11.182;2022-10-13T09:07:47;12.73;;;3.43;;
55254;SDS011;41118;44.634;11.182;2022-10-13T09:10:13;19.92;;;4.68;;
55254;SDS011;41118;44.634;11.182;2022-10-13T09:12:40;11.57;;;3.97;;
55254;SDS011;41118;44.634;11.182;2022-10-13T09:15:07;8.68;;;2.72;;
55254;SDS011;41118;44.634;11.182;2022-10-13T09:17:34;5.07;;;2.22;;
55254;SDS011;41118;44.634;11.182;2022-10-13T09:20:05;11.57;;;4.15;;
55254;SDS011;41118;44.634;11.182;2022-10-13T09:22:35;12.50;;;3.63;;
55254;SDS011;41118;44.634;11.182;2022-10-13T09:25:06;15.57;;;3.22;;
55254;SDS011;41118;44.634;11.182;2022-10-13T09:30:32;10.57;;;2.75;;
55254;SDS011;41118;44.634;11.182;2022-10-13T09:40:29;14.68;;;3.38;;
55254;SDS011;41118;44.634;11.182;2022-10-13T09:42:56;9.05;;;2.22;;
55254;SDS011;41118;44.634;11.182;2022-10-13T09:45:23;10.77;;;3.15;;
55254;SDS011;41118;44.634;11.182;2022-10-13T09:47:51;11.35;;;2.83;;
55254;SDS011;41118;44.634;11.182;2022-10-13T09:50:19;8.93;;;3.00;;
55254;SDS011;41118;44.634;11.182;2022-10-13T09:52:46;10.60;;;1.83;;
55254;SDS011;41118;44.634;11.182;2022-10-13T09:58:15;10.48;;;3.60;;
55254;SDS011;41118;44.634;11.182;2022-10-13T10:00:43;8.32;;;2.75;;
55254;SDS011;41118;44.634;11.182;2022-10-13T10:05:40;12.57;;;3.60;;
55254;SDS011;41118;44.634;11.182;2022-10-13T10:08:13;17.08;;;2.05;;
55254;SDS011;41118;44.634;11.182;2022-10-13T10:10:40;9.82;;;1.90;;
55254;SDS011;41118;44.634;11.182;2022-10-13T10:13:08;8.25;;;2.35;;
55254;SDS011;41118;44.634;11.182;2022-10-13T10:18:44;8.52;;;2.35;;
55254;SDS011;41118;44.634;11.182;2022-10-13T10:23:39;10.93;;;3.17;;
55254;SDS011;41118;44.634;11.182;2022-10-13T10:26:21;21.73;;;4.55;;
55254;SDS011;41118;44.634;11.182;2022-10-13T10:31:42;18.40;;;2.70;;
55254;SDS011;41118;44.634;11.182;2022-10-13T10:44:42;10.43;;;2.33;;
55254;SDS011;41118;44.634;11.182;2022-10-13T10:47:28;6.05;;;1.38;;
55254;SDS011;41118;44.634;11.182;2022-10-13T10:50:03;8.85;;;1.23;;
55254;SDS011;41118;44.634;11.182;2022-10-13T10:57:46;13.57;;;3.00;;
55254;SDS011;41118;44.634;11.182;2022-10-13T11:00:18;6.72;;;1.70;;
55254;SDS011;41118;44.634;11.182;2022-10-13T11:05:21;6.47;;;1.75;;
55254;SDS011;41118;44.634;11.182;2022-10-13T11:10:17;5.40;;;0.95;;
55254;SDS011;41118;44.634;11.182;2022-10-13T11:17:43;7.07;;;1.58;;
55254;SDS011;41118;44.634;11.182;2022-10-13T11:23:29;11.18;;;1.00;;
55254;SDS011;41118;44.634;11.182;2022-10-13T11:25:38;13.57;;;1.25;;
55254;SDS011;41118;44.634;11.182;2022-10-13T11:38:44;5.35;;;1.05;;
55254;SDS011;41118;44.634;11.182;2022-10-13T11:41:22;9.77;;;0.82;;
55254;SDS011;41118;44.634;11.182;2022-10-13T11:53:52;4.28;;;0.40;;
55254;SDS011;41118;44.634;11.182;2022-10-13T11:56:21;9.57;;;1.10;;
55254;SDS011;41118;44.634;11.182;2022-10-13T11:58:47;7.38;;;1.40;;
55254;SDS011;41118;44.634;11.182;2022-10-13T12:01:14;7.32;;;1.50;;
55254;SDS011;41118;44.634;11.182;2022-10-13T12:03:42;4.57;;;0.80;;
55254;SDS011;41118;44.634;11.182;2022-10-13T12:06:22;10.40;;;0.98;;
55254;SDS011;41118;44.634;11.182;2022-10-13T12:08:56;8.48;;;1.60;;
55254;SDS011;41118;44.634;11.182;2022-10-13T12:11:25;4.15;;;0.70;;
55254;SDS011;41118;44.634;11.182;2022-10-13T12:13:51;3.28;;;1.30;;
55254;SDS011;41118;44.634;11.182;2022-10-13T12:16:18;2.95;;;0.82;;
55254;SDS011;41118;44.634;11.182;2022-10-13T12:18:44;10.07;;;0.95;;
55254;SDS011;41118;44.634;11.182;2022-10-13T12:21:14;3.63;;;0.47;;
55254;SDS011;41118;44.634;11.182;2022-10-13T12:23:42;6.32;;;0.85;;
55254;SDS011;41118;44.634;11.182;2022-10-13T12:26:18;3.40;;;0.68;;
55254;SDS011;41118;44.634;11.182;2022-10-13T12:31:19;5.32;;;1.08;;
55254;SDS011;41118;44.634;11.182;2022-10-13T12:33:50;5.15;;;0.50;;
55254;SDS011;41118;44.634;11.182;2022-10-13T12:36:18;4.53;;;0.80;;
55254;SDS011;41118;44.634;11.182;2022-10-13T12:38:47;2.97;;;0.63;;
55254;SDS011;41118;44.634;11.182;2022-10-13T12:41:15;4.85;;;0.70;;
55254;SDS011;41118;44.634;11.182;2022-10-13T12:43:42;3.65;;;0.50;;
55254;SDS011;41118;44.634;11.182;2022-10-13T12:46:08;5.93;;;0.75;;
55254;SDS011;41118;44.634;11.182;2022-10-13T12:48:35;7.78;;;1.10;;
55254;SDS011;41118;44.634;11.182;2022-10-13T12:53:40;3.58;;;0.98;;
55254;SDS011;41118;44.634;11.182;2022-10-13T12:56:16;3.85;;;0.68;;
55254;SDS011;41118;44.634;11.182;2022-10-13T12:58:43;4.05;;;0.82;;
55254;SDS011;41118;44.634;11.182;2022-10-13T13:03:39;5.57;;;0.60;;
55254;SDS011;41118;44.634;11.182;2022-10-13T13:06:27;4.35;;;0.80;;
55254;SDS011;41118;44.634;11.182;2022-10-13T13:11:37;7.70;;;0.90;;
55254;SDS011;41118;44.634;11.182;2022-10-13T13:17:04;3.30;;;0.60;;
55254;SDS011;41118;44.634;11.182;2022-10-13T13:19:30;2.67;;;0.60;;
55254;SDS011;41118;44.634;11.182;2022-10-13T13:21:57;4.70;;;1.42;;
55254;SDS011;41118;44.634;11.182;2022-10-13T13:24:23;2.75;;;0.50;;
55254;SDS011;41118;44.634;11.182;2022-10-13T13:26:49;4.70;;;0.60;;
55254;SDS011;41118;44.634;11.182;2022-10-13T13:29:15;2.10;;;0.47;;
55254;SDS011;41118;44.634;11.182;2022-10-13T13:31:42;3.42;;;0.60;;
55254;SDS011;41118;44.634;11.182;2022-10-13T13:34:08;4.72;;;0.70;;
55254;SDS011;41118;44.634;11.182;2022-10-13T13:36:34;3.88;;;0.82;;
55254;SDS011;41118;44.634;11.182;2022-10-13T13:39:00;1.98;;;0.40;;
55254;SDS011;41118;44.634;11.182;2022-10-13T13:41:26;1.48;;;0.40;;
55254;SDS011;41118;44.634;11.182;2022-10-13T13:43:55;3.38;;;0.40;;
55254;SDS011;41118;44.634;11.182;2022-10-13T13:46:22;2.25;;;0.40;;
55254;SDS011;41118;44.634;11.182;2022-10-13T13:48:49;3.13;;;0.38;;
55254;SDS011;41118;44.634;11.182;2022-10-13T13:51:16;3.50;;;0.40;;
55254;SDS011;41118;44.634;11.182;2022-10-13T13:53:42;2.97;;;0.40;;
55254;SDS011;41118;44.634;11.182;2022-10-13T13:56:11;5.43;;;0.57;;
55254;SDS011;41118;44.634;11.182;2022-10-13T13:58:38;3.55;;;0.47;;
55254;SDS011;41118;44.634;11.182;2022-10-13T14:01:04;3.92;;;0.60;;
55254;SDS011;41118;44.634;11.182;2022-10-13T14:03:30;4.82;;;0.40;;
55254;SDS011;41118;44.634;11.182;2022-10-13T14:05:56;2.65;;;0.50;;
55254;SDS011;41118;44.634;11.182;2022-10-13T14:08:22;1.35;;;0.32;;
55254;SDS011;41118;44.634;11.182;2022-10-13T14:10:48;2.13;;;0.65;;
55254;SDS011;41118;44.634;11.182;2022-10-13T14:13:14;3.50;;;0.45;;
55254;SDS011;41118;44.634;11.182;2022-10-13T14:15:40;1.30;;;0.35;;
55254;SDS011;41118;44.634;11.182;2022-10-13T14:18:06;4.07;;;0.30;;
55254;SDS011;41118;44.634;11.182;2022-10-13T14:20:32;1.73;;;0.40;;
55254;SDS011;41118;44.634;11.182;2022-10-13T14:22:59;2.92;;;0.30;;
55254;SDS011;41118;44.634;11.182;2022-10-13T14:25:25;3.67;;;0.35;;
55254;SDS011;41118;44.634;11.182;2022-10-13T14:27:51;4.20;;;1.10;;
55254;SDS011;41118;44.634;11.182;2022-10-13T14:30:17;2.30;;;0.32;;
55254;SDS011;41118;44.634;11.182;2022-10-13T14:32:43;3.10;;;0.30;;
55254;SDS011;41118;44.634;11.182;2022-10-13T14:35:09;10.10;;;0.40;;
55254;SDS011;41118;44.634;11.182;2022-10-13T14:37:35;2.28;;;0.40;;
55254;SDS011;41118;44.634;11.182;2022-10-13T14:40:01;2.35;;;0.60;;
55254;SDS011;41118;44.634;11.182;2022-10-13T14:42:28;5.10;;;0.43;;
55254;SDS011;41118;44.634;11.182;2022-10-13T14:44:54;3.08;;;0.35;;
55254;SDS011;41118;44.634;11.182;2022-10-13T14:47:20;2.60;;;0.38;;
55254;SDS011;41118;44.634;11.182;2022-10-13T14:49:47;2.92;;;0.28;;
55254;SDS011;41118;44.634;11.182;2022-10-13T14:52:13;2.35;;;0.65;;
55254;SDS011;41118;44.634;11.182;2022-10-13T14:54:39;6.95;;;0.73;;
55254;SDS011;41118;44.634;11.182;2022-10-13T14:57:05;1.92;;;0.30;;
55254;SDS011;41118;44.634;11.182;2022-10-13T14:59:32;6.20;;;0.30;;
55254;SDS011;41118;44.634;11.182;2022-10-13T15:01:58;2.30;;;0.30;;
55254;SDS011;41118;44.634;11.182;2022-10-13T15:04:25;1.20;;;0.30;;
55254;SDS011;41118;44.634;11.182;2022-10-13T15:06:51;8.18;;;0.77;;
55254;SDS011;41118;44.634;11.182;2022-10-13T15:09:17;5.28;;;0.90;;
55254;SDS011;41118;44.634;11.182;2022-10-13T15:11:43;1.70;;;0.47;;
55254;SDS011;41118;44.634;11.182;2022-10-13T15:14:10;4.07;;;0.45;;
55254;SDS011;41118;44.634;11.182;2022-10-13T15:16:37;3.55;;;0.22;;
55254;SDS011;41118;44.634;11.182;2022-10-13T15:19:03;5.95;;;0.43;;
55254;SDS011;41118;44.634;11.182;2022-10-13T15:21:30;8.43;;;0.60;;
55254;SDS011;41118;44.634;11.182;2022-10-13T15:23:57;5.70;;;0.60;;
55254;SDS011;41118;44.634;11.182;2022-10-13T15:26:23;1.20;;;0.40;;
55254;SDS011;41118;44.634;11.182;2022-10-13T15:28:50;5.25;;;0.88;;
55254;SDS011;41118;44.634;11.182;2022-10-13T15:31:16;6.25;;;0.55;;
55254;SDS011;41118;44.634;11.182;2022-10-13T15:33:47;7.97;;;0.40;;
55254;SDS011;41118;44.634;11.182;2022-10-13T15:36:13;4.55;;;0.50;;
55254;SDS011;41118;44.634;11.182;2022-10-13T15:38:39;4.78;;;0.40;;
55254;SDS011;41118;44.634;11.182;2022-10-13T15:41:05;9.95;;;0.50;;
55254;SDS011;41118;44.634;11.182;2022-10-13T15:43:32;6.03;;;0.40;;
55254;SDS011;41118;44.634;11.182;2022-10-13T15:46:00;4.97;;;0.47;;
55254;SDS011;41118;44.634;11.182;2022-10-13T15:48:27;4.13;;;0.60;;
55254;SDS011;41118;44.634;11.182;2022-10-13T15:50:54;1.70;;;0.30;;
55254;SDS011;41118;44.634;11.182;2022-10-13T15:53:20;3.90;;;0.30;;
55254;SDS011;41118;44.634;11.182;2022-10-13T15:55:47;3.67;;;0.35;;
55254;SDS011;41118;44.634;11.182;2022-10-13T15:58:14;3.72;;;0.40;;
55254;SDS011;41118;44.634;11.182;2022-10-13T16:00:40;1.42;;;0.30;;
55254;SDS011;41118;44.634;11.182;2022-10-13T16:03:09;3.95;;;0.40;;
55254;SDS011;41118;44.634;11.182;2022-10-13T16:05:39;2.30;;;0.50;;
55254;SDS011;41118;44.634;11.182;2022-10-13T16:08:05;3.95;;;0.40;;
55254;SDS011;41118;44.634;11.182;2022-10-13T16:10:32;4.07;;;0.50;;
55254;SDS011;41118;44.634;11.182;2022-10-13T16:12:58;4.03;;;0.40;;
55254;SDS011;41118;44.634;11.182;2022-10-13T16:15:24;5.75;;;0.50;;
55254;SDS011;41118;44.634;11.182;2022-10-13T16:17:50;3.92;;;0.30;;
55254;SDS011;41118;44.634;11.182;2022-10-13T16:20:17;1.75;;;0.40;;
55254;SDS011;41118;44.634;11.182;2022-10-13T16:22:43;1.45;;;0.40;;